sensor_id;sensor_type;location;lat;lon;timestamp;P1;durP1;ratioP1;P2;durP2;ratioP2
20324;SDS011;10320;49.482;11.256;2023-12-20T00:01:29;5.67;;;4.33;;
20324;SDS011;10320;49.482;11.256;2023-12-20T00:03:55;5.17;;;4.50;;
20324;SDS011;10320;49.482;11.256;2023-12-20T00:06:21;5.03;;;4.33;;
20324;SDS011;10320;49.482;11.256;2023-12-20T00:08:47;5.00;;;4.57;;
20324;SDS011;10320;49.482;11.256;2023-12-20T00:11:14;5.23;;;4.10;;
20324;SDS011;10320;49.482;11.256;2023-12-20T00:13:39;5.27;;;4.50;;
20324;SDS011;10320;49.482;11.256;2023-12-20T00:16:05;4.27;;;3.80;;
20324;SDS011;10320;49.482;11.256;2023-12-20T00:18:31;7.73;;;4.43;;
20324;SDS011;10320;49.482;11.256;2023-12-20T00:20:57;4.73;;;4.23;;
20324;SDS011;10320;49.482;11.256;2023-12-20T00:23:23;4.80;;;4.30;;
20324;SDS011;10320;49.482;11.256;2023-12-20T00:25:49;5.70;;;5.10;;
20324;SDS011;10320;49.482;11.256;2023-12-20T00:28:15;6.40;;;4.73;;
20324;SDS011;10320;49.482;11.256;2023-12-20T00:30:41;6.23;;;4.93;;
20324;SDS011;10320;49.482;11.256;2023-12-20T00:33:08;7.10;;;6.10;;
20324;SDS011;10320;49.482;11.256;2023-12-20T00:35:34;5.90;;;5.13;;
20324;SDS011;10320;49.482;11.256;2023-12-20T00:38:01;6.77;;;5.73;;
20324;SDS011;10320;49.482;11.256;2023-12-20T00:40:27;7.40;;;5.80;;
20324;SDS011;10320;49.482;11.256;2023-12-20T00:42:53;6.40;;;5.53;;
20324;SDS011;10320;49.482;11.256;2023-12-20T00:45:19;7.43;;;5.67;;
20324;SDS011;10320;49.482;11.256;2023-12-20T00:53:52;6.90;;;6.10;;
20324;SDS011;10320;49.482;11.256;2023-12-20T00:56:20;9.07;;;6.20;;
20324;SDS011;10320;49.482;11.256;2023-12-20T00:58:46;7.10;;;6.10;;
20324;SDS011;10320;49.482;11.256;2023-12-20T01:01:12;6.83;;;5.70;;
20324;SDS011;10320;49.482;11.256;2023-12-20T01:03:38;9.80;;;6.63;;
20324;SDS011;10320;49.482;11.256;2023-12-20T01:06:04;8.40;;;5.80;;
20324;SDS011;10320;49.482;11.256;2023-12-20T01:08:30;8.80;;;6.70;;
20324;SDS011;10320;49.482;11.256;2023-12-20T01:10:56;9.37;;;6.27;;
20324;SDS011;10320;49.482;11.256;2023-12-20T01:13:22;8.17;;;6.10;;
20324;SDS011;10320;49.482;11.256;2023-12-20T01:15:48;7.80;;;5.80;;
20324;SDS011;10320;49.482;11.256;2023-12-20T01:18:14;8.80;;;6.03;;
20324;SDS011;10320;49.482;11.256;2023-12-20T01:20:40;6.80;;;5.80;;
20324;SDS011;10320;49.482;11.256;2023-12-20T01:23:06;7.87;;;5.67;;
20324;SDS011;10320;49.482;11.256;2023-12-20T01:25:32;9.57;;;5.87;;
20324;SDS011;10320;49.482;11.256;2023-12-20T01:27:58;6.80;;;4.50;;
20324;SDS011;10320;49.482;11.256;2023-12-20T01:30:24;6.87;;;5.20;;
20324;SDS011;10320;49.482;11.256;2023-12-20T01:32:50;5.27;;;4.20;;
20324;SDS011;10320;49.482;11.256;2023-12-20T01:35:16;7.60;;;4.50;;
20324;SDS011;10320;49.482;11.256;2023-12-20T01:37:42;5.93;;;4.27;;
20324;SDS011;10320;49.482;11.256;2023-12-20T01:40:08;6.30;;;4.90;;
20324;SDS011;10320;49.482;11.256;2023-12-20T01:42:34;4.97;;;3.57;;
20324;SDS011;10320;49.482;11.256;2023-12-20T01:45:00;4.73;;;4.23;;
20324;SDS011;10320;49.482;11.256;2023-12-20T01:47:27;4.50;;;3.70;;
20324;SDS011;10320;49.482;11.256;2023-12-20T01:49:53;4.60;;;3.70;;
20324;SDS011;10320;49.482;11.256;2023-12-20T01:52:21;4.30;;;3.90;;
20324;SDS011;10320;49.482;11.256;2023-12-20T01:54:47;3.70;;;3.40;;
20324;SDS011;10320;49.482;11.256;2023-12-20T01:57:14;3.90;;;3.10;;
20324;SDS011;10320;49.482;11.256;2023-12-20T01:59:40;4.00;;;3.13;;
20324;SDS011;10320;49.482;11.256;2023-12-20T02:02:06;4.93;;;3.10;;
20324;SDS011;10320;49.482;11.256;2023-12-20T02:04:33;3.20;;;2.87;;
20324;SDS011;10320;49.482;11.256;2023-12-20T02:06:59;2.90;;;2.60;;
20324;SDS011;10320;49.482;11.256;2023-12-20T02:09:25;3.33;;;2.57;;
20324;SDS011;10320;49.482;11.256;2023-12-20T02:11:52;2.50;;;2.30;;
20324;SDS011;10320;49.482;11.256;2023-12-20T02:14:18;2.40;;;2.10;;
20324;SDS011;10320;49.482;11.256;2023-12-20T02:16:44;2.50;;;2.30;;
20324;SDS011;10320;49.482;11.256;2023-12-20T02:19:13;2.10;;;1.90;;
20324;SDS011;10320;49.482;11.256;2023-12-20T02:21:39;3.03;;;2.57;;
20324;SDS011;10320;49.482;11.256;2023-12-20T02:24:05;2.33;;;2.13;;
20324;SDS011;10320;49.482;11.256;2023-12-20T02:26:32;3.20;;;2.07;;
20324;SDS011;10320;49.482;11.256;2023-12-20T02:28:59;2.10;;;1.90;;
20324;SDS011;10320;49.482;11.256;2023-12-20T02:31:25;2.03;;;1.83;;
20324;SDS011;10320;49.482;11.256;2023-12-20T02:33:51;2.03;;;1.77;;
20324;SDS011;10320;49.482;11.256;2023-12-20T02:36:17;2.00;;;1.80;;
20324;SDS011;10320;49.482;11.256;2023-12-20T02:38:43;2.00;;;1.80;;
20324;SDS011;10320;49.482;11.256;2023-12-20T02:41:09;1.87;;;1.70;;
20324;SDS011;10320;49.482;11.256;2023-12-20T02:43:35;2.00;;;1.80;;
20324;SDS011;10320;49.482;11.256;2023-12-20T02:46:01;1.97;;;1.70;;
20324;SDS011;10320;49.482;11.256;2023-12-20T02:48:27;2.40;;;1.50;;
20324;SDS011;10320;49.482;11.256;2023-12-20T02:50:53;1.43;;;1.30;;
20324;SDS011;10320;49.482;11.256;2023-12-20T02:53:20;1.37;;;1.27;;
20324;SDS011;10320;49.482;11.256;2023-12-20T02:55:46;1.80;;;1.43;;
20324;SDS011;10320;49.482;11.256;2023-12-20T02:58:12;1.80;;;1.50;;
20324;SDS011;10320;49.482;11.256;2023-12-20T03:00:38;1.70;;;1.30;;
20324;SDS011;10320;49.482;11.256;2023-12-20T03:03:04;1.20;;;1.10;;
20324;SDS011;10320;49.482;11.256;2023-12-20T03:05:30;1.40;;;1.30;;
20324;SDS011;10320;49.482;11.256;2023-12-20T03:07:56;0.80;;;0.80;;
20324;SDS011;10320;49.482;11.256;2023-12-20T03:10:22;1.00;;;1.00;;
20324;SDS011;10320;49.482;11.256;2023-12-20T03:12:48;0.87;;;0.77;;
20324;SDS011;10320;49.482;11.256;2023-12-20T03:15:14;0.90;;;0.90;;
20324;SDS011;10320;49.482;11.256;2023-12-20T03:17:40;1.10;;;0.90;;
20324;SDS011;10320;49.482;11.256;2023-12-20T03:20:06;0.93;;;0.93;;
20324;SDS011;10320;49.482;11.256;2023-12-20T03:22:32;1.00;;;1.00;;
20324;SDS011;10320;49.482;11.256;2023-12-20T03:24:59;1.30;;;1.07;;
20324;SDS011;10320;49.482;11.256;2023-12-20T03:27:25;1.20;;;1.10;;
20324;SDS011;10320;49.482;11.256;2023-12-20T03:29:51;1.20;;;1.10;;
20324;SDS011;10320;49.482;11.256;2023-12-20T03:32:17;1.50;;;1.30;;
20324;SDS011;10320;49.482;11.256;2023-12-20T03:34:43;1.40;;;1.30;;
20324;SDS011;10320;49.482;11.256;2023-12-20T03:37:11;1.43;;;1.33;;
20324;SDS011;10320;49.482;11.256;2023-12-20T03:39:37;1.20;;;1.10;;
20324;SDS011;10320;49.482;11.256;2023-12-20T03:42:03;1.50;;;1.40;;
20324;SDS011;10320;49.482;11.256;2023-12-20T03:44:29;1.40;;;1.30;;
20324;SDS011;10320;49.482;11.256;2023-12-20T03:46:55;1.40;;;1.30;;
20324;SDS011;10320;49.482;11.256;2023-12-20T03:49:21;1.37;;;1.27;;
20324;SDS011;10320;49.482;11.256;2023-12-20T03:51:47;1.67;;;1.20;;
20324;SDS011;10320;49.482;11.256;2023-12-20T03:54:13;1.50;;;1.40;;
20324;SDS011;10320;49.482;11.256;2023-12-20T03:56:39;1.43;;;1.20;;
20324;SDS011;10320;49.482;11.256;2023-12-20T03:59:05;1.70;;;1.30;;
20324;SDS011;10320;49.482;11.256;2023-12-20T04:01:31;1.27;;;1.00;;
20324;SDS011;10320;49.482;11.256;2023-12-20T04:03:57;1.53;;;1.10;;
20324;SDS011;10320;49.482;11.256;2023-12-20T04:06:23;1.43;;;1.33;;
20324;SDS011;10320;49.482;11.256;2023-12-20T04:08:49;1.63;;;1.00;;
20324;SDS011;10320;49.482;11.256;2023-12-20T04:11:15;1.43;;;1.20;;
20324;SDS011;10320;49.482;11.256;2023-12-20T04:13:41;1.20;;;1.10;;
20324;SDS011;10320;49.482;11.256;2023-12-20T04:16:07;1.33;;;1.23;;
20324;SDS011;10320;49.482;11.256;2023-12-20T04:18:33;1.10;;;1.00;;
20324;SDS011;10320;49.482;11.256;2023-12-20T04:20:59;1.40;;;1.30;;
20324;SDS011;10320;49.482;11.256;2023-12-20T04:23:25;1.30;;;1.20;;
20324;SDS011;10320;49.482;11.256;2023-12-20T04:25:51;1.43;;;1.20;;
20324;SDS011;10320;49.482;11.256;2023-12-20T04:28:17;2.33;;;1.17;;
20324;SDS011;10320;49.482;11.256;2023-12-20T04:30:43;2.20;;;2.00;;
20324;SDS011;10320;49.482;11.256;2023-12-20T04:33:09;1.80;;;1.70;;
20324;SDS011;10320;49.482;11.256;2023-12-20T04:35:35;2.60;;;2.20;;
20324;SDS011;10320;49.482;11.256;2023-12-20T04:38:01;2.60;;;2.40;;
20324;SDS011;10320;49.482;11.256;2023-12-20T04:40:27;3.00;;;2.70;;
20324;SDS011;10320;49.482;11.256;2023-12-20T04:42:53;2.70;;;2.20;;
20324;SDS011;10320;49.482;11.256;2023-12-20T04:45:19;1.80;;;1.70;;
20324;SDS011;10320;49.482;11.256;2023-12-20T04:47:45;1.80;;;1.70;;
20324;SDS011;10320;49.482;11.256;2023-12-20T04:50:12;1.60;;;1.50;;
20324;SDS011;10320;49.482;11.256;2023-12-20T04:52:38;1.73;;;1.40;;
20324;SDS011;10320;49.482;11.256;2023-12-20T04:55:04;1.77;;;1.50;;
20324;SDS011;10320;49.482;11.256;2023-12-20T04:57:30;2.10;;;1.70;;
20324;SDS011;10320;49.482;11.256;2023-12-20T04:59:56;1.40;;;1.30;;
20324;SDS011;10320;49.482;11.256;2023-12-20T05:02:22;1.63;;;1.53;;
20324;SDS011;10320;49.482;11.256;2023-12-20T05:04:48;1.60;;;1.50;;
20324;SDS011;10320;49.482;11.256;2023-12-20T05:07:14;1.83;;;1.50;;
20324;SDS011;10320;49.482;11.256;2023-12-20T05:09:40;1.80;;;1.60;;
20324;SDS011;10320;49.482;11.256;2023-12-20T05:12:06;2.10;;;1.77;;
20324;SDS011;10320;49.482;11.256;2023-12-20T05:14:32;1.70;;;1.60;;
20324;SDS011;10320;49.482;11.256;2023-12-20T05:16:58;1.70;;;1.60;;
20324;SDS011;10320;49.482;11.256;2023-12-20T05:19:24;1.60;;;1.50;;
20324;SDS011;10320;49.482;11.256;2023-12-20T05:21:51;1.70;;;1.60;;
20324;SDS011;10320;49.482;11.256;2023-12-20T05:24:17;2.03;;;1.80;;
20324;SDS011;10320;49.482;11.256;2023-12-20T05:26:43;1.90;;;1.80;;
20324;SDS011;10320;49.482;11.256;2023-12-20T05:29:09;1.63;;;1.53;;
20324;SDS011;10320;49.482;11.256;2023-12-20T05:31:35;1.70;;;1.60;;
20324;SDS011;10320;49.482;11.256;2023-12-20T05:34:01;2.27;;;1.60;;
20324;SDS011;10320;49.482;11.256;2023-12-20T05:36:27;1.60;;;1.50;;
20324;SDS011;10320;49.482;11.256;2023-12-20T05:38:53;4.80;;;2.00;;
20324;SDS011;10320;49.482;11.256;2023-12-20T05:41:19;3.00;;;1.70;;
20324;SDS011;10320;49.482;11.256;2023-12-20T05:43:46;2.30;;;1.90;;
20324;SDS011;10320;49.482;11.256;2023-12-20T05:46:12;1.87;;;1.67;;
20324;SDS011;10320;49.482;11.256;2023-12-20T05:48:38;2.63;;;1.90;;
20324;SDS011;10320;49.482;11.256;2023-12-20T05:51:04;1.47;;;1.37;;
20324;SDS011;10320;49.482;11.256;2023-12-20T05:53:32;2.10;;;1.90;;
20324;SDS011;10320;49.482;11.256;2023-12-20T05:55:57;1.77;;;1.67;;
20324;SDS011;10320;49.482;11.256;2023-12-20T05:58:24;1.80;;;1.70;;
20324;SDS011;10320;49.482;11.256;2023-12-20T06:00:50;2.77;;;1.80;;
20324;SDS011;10320;49.482;11.256;2023-12-20T06:03:16;2.20;;;1.97;;
20324;SDS011;10320;49.482;11.256;2023-12-20T06:05:42;1.83;;;1.73;;
20324;SDS011;10320;49.482;11.256;2023-12-20T06:08:08;2.00;;;1.80;;
20324;SDS011;10320;49.482;11.256;2023-12-20T06:10:34;2.00;;;1.80;;
20324;SDS011;10320;49.482;11.256;2023-12-20T06:13:00;2.50;;;2.20;;
20324;SDS011;10320;49.482;11.256;2023-12-20T06:15:26;2.60;;;2.20;;
20324;SDS011;10320;49.482;11.256;2023-12-20T06:17:52;3.33;;;2.00;;
20324;SDS011;10320;49.482;11.256;2023-12-20T06:20:18;2.60;;;2.17;;
20324;SDS011;10320;49.482;11.256;2023-12-20T06:22:44;2.60;;;2.03;;
20324;SDS011;10320;49.482;11.256;2023-12-20T06:25:10;2.47;;;2.20;;
20324;SDS011;10320;49.482;11.256;2023-12-20T06:27:36;2.40;;;2.20;;
20324;SDS011;10320;49.482;11.256;2023-12-20T06:30:02;2.30;;;2.10;;
20324;SDS011;10320;49.482;11.256;2023-12-20T06:32:28;2.43;;;2.10;;
20324;SDS011;10320;49.482;11.256;2023-12-20T06:34:55;4.67;;;2.30;;
20324;SDS011;10320;49.482;11.256;2023-12-20T06:37:21;2.93;;;2.00;;
20324;SDS011;10320;49.482;11.256;2023-12-20T06:39:47;2.67;;;2.47;;
20324;SDS011;10320;49.482;11.256;2023-12-20T06:42:13;3.20;;;2.27;;
20324;SDS011;10320;49.482;11.256;2023-12-20T06:44:39;2.67;;;2.30;;
20324;SDS011;10320;49.482;11.256;2023-12-20T06:47:05;2.70;;;2.30;;
20324;SDS011;10320;49.482;11.256;2023-12-20T06:49:31;2.80;;;2.60;;
20324;SDS011;10320;49.482;11.256;2023-12-20T06:51:57;2.80;;;2.60;;
20324;SDS011;10320;49.482;11.256;2023-12-20T06:54:23;3.20;;;2.90;;
20324;SDS011;10320;49.482;11.256;2023-12-20T06:56:49;3.73;;;2.90;;
20324;SDS011;10320;49.482;11.256;2023-12-20T06:59:15;3.30;;;3.00;;
20324;SDS011;10320;49.482;11.256;2023-12-20T07:01:41;3.63;;;3.33;;
20324;SDS011;10320;49.482;11.256;2023-12-20T07:04:08;3.33;;;3.03;;
20324;SDS011;10320;49.482;11.256;2023-12-20T07:06:34;3.50;;;3.20;;
20324;SDS011;10320;49.482;11.256;2023-12-20T07:09:00;3.80;;;3.50;;
20324;SDS011;10320;49.482;11.256;2023-12-20T07:11:26;4.03;;;3.60;;
20324;SDS011;10320;49.482;11.256;2023-12-20T07:13:52;4.10;;;3.50;;
20324;SDS011;10320;49.482;11.256;2023-12-20T07:16:18;3.77;;;3.47;;
20324;SDS011;10320;49.482;11.256;2023-12-20T07:18:44;4.40;;;3.47;;
20324;SDS011;10320;49.482;11.256;2023-12-20T07:21:10;4.53;;;3.70;;
20324;SDS011;10320;49.482;11.256;2023-12-20T07:23:36;4.17;;;3.77;;
20324;SDS011;10320;49.482;11.256;2023-12-20T07:26:02;4.27;;;3.93;;
20324;SDS011;10320;49.482;11.256;2023-12-20T07:28:29;4.73;;;4.33;;
20324;SDS011;10320;49.482;11.256;2023-12-20T07:30:55;4.20;;;3.80;;
20324;SDS011;10320;49.482;11.256;2023-12-20T07:33:21;6.00;;;4.43;;
20324;SDS011;10320;49.482;11.256;2023-12-20T07:35:47;4.57;;;4.17;;
20324;SDS011;10320;49.482;11.256;2023-12-20T07:38:12;12.17;;;5.50;;
20324;SDS011;10320;49.482;11.256;2023-12-20T07:40:38;6.20;;;4.60;;
20324;SDS011;10320;49.482;11.256;2023-12-20T07:43:05;5.23;;;4.73;;
20324;SDS011;10320;49.482;11.256;2023-12-20T07:45:31;5.13;;;4.73;;
20324;SDS011;10320;49.482;11.256;2023-12-20T07:47:57;5.97;;;4.93;;
20324;SDS011;10320;49.482;11.256;2023-12-20T07:50:23;6.37;;;4.90;;
20324;SDS011;10320;49.482;11.256;2023-12-20T07:52:49;5.70;;;4.93;;
20324;SDS011;10320;49.482;11.256;2023-12-20T07:55:15;4.90;;;4.40;;
20324;SDS011;10320;49.482;11.256;2023-12-20T07:57:41;5.17;;;4.77;;
20324;SDS011;10320;49.482;11.256;2023-12-20T08:00:07;5.30;;;4.80;;
20324;SDS011;10320;49.482;11.256;2023-12-20T08:02:33;6.97;;;4.97;;
20324;SDS011;10320;49.482;11.256;2023-12-20T08:04:59;6.67;;;5.03;;
20324;SDS011;10320;49.482;11.256;2023-12-20T08:07:25;5.83;;;5.23;;
20324;SDS011;10320;49.482;11.256;2023-12-20T08:09:51;5.73;;;5.13;;
20324;SDS011;10320;49.482;11.256;2023-12-20T08:12:18;5.93;;;5.33;;
20324;SDS011;10320;49.482;11.256;2023-12-20T08:14:44;5.53;;;5.03;;
20324;SDS011;10320;49.482;11.256;2023-12-20T08:17:09;5.53;;;5.03;;
20324;SDS011;10320;49.482;11.256;2023-12-20T08:19:35;5.17;;;4.67;;
20324;SDS011;10320;49.482;11.256;2023-12-20T08:22:01;5.57;;;5.07;;
20324;SDS011;10320;49.482;11.256;2023-12-20T08:24:27;6.10;;;5.00;;
20324;SDS011;10320;49.482;11.256;2023-12-20T08:26:53;6.03;;;4.90;;
20324;SDS011;10320;49.482;11.256;2023-12-20T08:29:19;5.80;;;5.00;;
20324;SDS011;10320;49.482;11.256;2023-12-20T08:31:46;5.30;;;4.80;;
20324;SDS011;10320;49.482;11.256;2023-12-20T08:34:12;5.50;;;5.00;;
20324;SDS011;10320;49.482;11.256;2023-12-20T08:36:39;5.87;;;4.97;;
20324;SDS011;10320;49.482;11.256;2023-12-20T08:39:05;4.90;;;4.50;;
20324;SDS011;10320;49.482;11.256;2023-12-20T08:41:34;5.00;;;4.50;;
20324;SDS011;10320;49.482;11.256;2023-12-20T08:44:01;4.70;;;4.30;;
20324;SDS011;10320;49.482;11.256;2023-12-20T08:46:27;5.47;;;4.97;;
20324;SDS011;10320;49.482;11.256;2023-12-20T08:48:53;4.77;;;4.03;;
20324;SDS011;10320;49.482;11.256;2023-12-20T08:51:19;5.37;;;4.63;;
20324;SDS011;10320;49.482;11.256;2023-12-20T08:53:46;5.00;;;4.50;;
20324;SDS011;10320;49.482;11.256;2023-12-20T08:56:12;5.50;;;5.00;;
20324;SDS011;10320;49.482;11.256;2023-12-20T08:58:38;4.57;;;4.17;;
20324;SDS011;10320;49.482;11.256;2023-12-20T09:01:04;5.10;;;4.60;;
20324;SDS011;10320;49.482;11.256;2023-12-20T09:03:30;5.20;;;4.70;;
20324;SDS011;10320;49.482;11.256;2023-12-20T09:05:56;5.53;;;4.93;;
20324;SDS011;10320;49.482;11.256;2023-12-20T09:08:22;5.07;;;4.40;;
20324;SDS011;10320;49.482;11.256;2023-12-20T09:10:48;6.50;;;5.00;;
20324;SDS011;10320;49.482;11.256;2023-12-20T09:13:14;5.20;;;4.73;;
20324;SDS011;10320;49.482;11.256;2023-12-20T09:15:40;5.80;;;4.97;;
20324;SDS011;10320;49.482;11.256;2023-12-20T09:18:06;5.30;;;4.80;;
20324;SDS011;10320;49.482;11.256;2023-12-20T09:20:33;5.07;;;4.57;;
20324;SDS011;10320;49.482;11.256;2023-12-20T09:22:59;5.23;;;4.73;;
20324;SDS011;10320;49.482;11.256;2023-12-20T09:25:25;4.90;;;4.50;;
20324;SDS011;10320;49.482;11.256;2023-12-20T09:27:51;4.73;;;4.07;;
20324;SDS011;10320;49.482;11.256;2023-12-20T09:30:17;6.43;;;4.17;;
20324;SDS011;10320;49.482;11.256;2023-12-20T09:32:44;5.63;;;4.60;;
20324;SDS011;10320;49.482;11.256;2023-12-20T09:35:10;5.33;;;4.10;;
20324;SDS011;10320;49.482;11.256;2023-12-20T09:37:37;4.67;;;4.00;;
20324;SDS011;10320;49.482;11.256;2023-12-20T09:40:03;4.83;;;4.00;;
20324;SDS011;10320;49.482;11.256;2023-12-20T09:42:33;5.40;;;4.80;;
20324;SDS011;10320;49.482;11.256;2023-12-20T09:45:01;4.30;;;3.90;;
20324;SDS011;10320;49.482;11.256;2023-12-20T09:47:28;5.13;;;3.93;;
20324;SDS011;10320;49.482;11.256;2023-12-20T09:49:54;4.93;;;3.67;;
20324;SDS011;10320;49.482;11.256;2023-12-20T09:52:20;4.63;;;3.67;;
20324;SDS011;10320;49.482;11.256;2023-12-20T09:54:48;4.90;;;3.20;;
20324;SDS011;10320;49.482;11.256;2023-12-20T09:57:15;4.77;;;3.90;;
20324;SDS011;10320;49.482;11.256;2023-12-20T09:59:41;4.17;;;3.27;;
20324;SDS011;10320;49.482;11.256;2023-12-20T10:02:08;4.73;;;2.90;;
20324;SDS011;10320;49.482;11.256;2023-12-20T10:04:36;3.87;;;3.10;;
20324;SDS011;10320;49.482;11.256;2023-12-20T10:07:02;3.37;;;3.07;;
20324;SDS011;10320;49.482;11.256;2023-12-20T10:09:31;12.57;;;3.67;;
20324;SDS011;10320;49.482;11.256;2023-12-20T10:11:58;4.23;;;2.67;;
20324;SDS011;10320;49.482;11.256;2023-12-20T10:14:24;3.77;;;2.40;;
20324;SDS011;10320;49.482;11.256;2023-12-20T10:16:50;3.83;;;2.50;;
20324;SDS011;10320;49.482;11.256;2023-12-20T10:19:16;4.40;;;2.40;;
20324;SDS011;10320;49.482;11.256;2023-12-20T10:21:45;5.97;;;2.20;;
20324;SDS011;10320;49.482;11.256;2023-12-20T10:24:16;3.53;;;2.40;;
20324;SDS011;10320;49.482;11.256;2023-12-20T10:26:43;3.27;;;2.13;;
20324;SDS011;10320;49.482;11.256;2023-12-20T10:29:09;3.07;;;2.00;;
20324;SDS011;10320;49.482;11.256;2023-12-20T10:31:36;3.10;;;1.70;;
20324;SDS011;10320;49.482;11.256;2023-12-20T10:34:03;2.00;;;1.70;;
20324;SDS011;10320;49.482;11.256;2023-12-20T10:36:31;3.03;;;1.60;;
20324;SDS011;10320;49.482;11.256;2023-12-20T10:38:57;4.10;;;1.80;;
20324;SDS011;10320;49.482;11.256;2023-12-20T10:41:25;3.97;;;2.00;;
20324;SDS011;10320;49.482;11.256;2023-12-20T10:43:51;2.90;;;1.60;;
20324;SDS011;10320;49.482;11.256;2023-12-20T10:46:19;2.40;;;1.57;;
20324;SDS011;10320;49.482;11.256;2023-12-20T10:48:45;4.13;;;1.60;;
20324;SDS011;10320;49.482;11.256;2023-12-20T10:51:11;2.57;;;1.57;;
20324;SDS011;10320;49.482;11.256;2023-12-20T10:53:37;2.23;;;1.50;;
20324;SDS011;10320;49.482;11.256;2023-12-20T10:56:05;3.10;;;1.73;;
20324;SDS011;10320;49.482;11.256;2023-12-20T10:58:31;2.73;;;1.70;;
20324;SDS011;10320;49.482;11.256;2023-12-20T11:00:59;2.87;;;1.67;;
20324;SDS011;10320;49.482;11.256;2023-12-20T11:03:29;3.13;;;1.60;;
20324;SDS011;10320;49.482;11.256;2023-12-20T11:06:03;5.83;;;1.90;;
20324;SDS011;10320;49.482;11.256;2023-12-20T11:08:47;1.60;;;1.20;;
20324;SDS011;10320;49.482;11.256;2023-12-20T11:11:23;4.00;;;1.70;;
20324;SDS011;10320;49.482;11.256;2023-12-20T11:14:07;2.77;;;1.67;;
20324;SDS011;10320;49.482;11.256;2023-12-20T11:16:37;4.27;;;2.13;;
20324;SDS011;10320;49.482;11.256;2023-12-20T11:19:05;4.27;;;1.97;;
20324;SDS011;10320;49.482;11.256;2023-12-20T11:21:31;3.07;;;1.90;;
20324;SDS011;10320;49.482;11.256;2023-12-20T11:23:58;5.20;;;2.10;;
20324;SDS011;10320;49.482;11.256;2023-12-20T11:26:28;3.23;;;2.10;;
20324;SDS011;10320;49.482;11.256;2023-12-20T11:29:02;3.70;;;1.83;;
20324;SDS011;10320;49.482;11.256;2023-12-20T11:31:40;4.40;;;2.13;;
20324;SDS011;10320;49.482;11.256;2023-12-20T11:34:13;3.90;;;1.50;;
20324;SDS011;10320;49.482;11.256;2023-12-20T11:36:42;2.33;;;1.50;;
20324;SDS011;10320;49.482;11.256;2023-12-20T11:39:08;4.20;;;1.80;;
20324;SDS011;10320;49.482;11.256;2023-12-20T11:41:35;4.33;;;1.77;;
20324;SDS011;10320;49.482;11.256;2023-12-20T11:44:02;3.80;;;1.70;;
20324;SDS011;10320;49.482;11.256;2023-12-20T11:46:31;3.00;;;1.43;;
20324;SDS011;10320;49.482;11.256;2023-12-20T11:48:58;2.60;;;1.70;;
20324;SDS011;10320;49.482;11.256;2023-12-20T11:51:26;3.30;;;1.77;;
20324;SDS011;10320;49.482;11.256;2023-12-20T11:53:52;4.47;;;1.60;;
20324;SDS011;10320;49.482;11.256;2023-12-20T11:56:18;2.63;;;1.73;;
20324;SDS011;10320;49.482;11.256;2023-12-20T11:58:45;3.03;;;1.80;;
20324;SDS011;10320;49.482;11.256;2023-12-20T12:01:11;3.10;;;1.77;;
20324;SDS011;10320;49.482;11.256;2023-12-20T12:03:37;2.90;;;1.60;;
20324;SDS011;10320;49.482;11.256;2023-12-20T12:06:03;2.13;;;1.40;;
20324;SDS011;10320;49.482;11.256;2023-12-20T12:08:29;3.87;;;1.50;;
20324;SDS011;10320;49.482;11.256;2023-12-20T12:10:55;3.47;;;1.90;;
20324;SDS011;10320;49.482;11.256;2023-12-20T12:13:21;3.03;;;1.67;;
20324;SDS011;10320;49.482;11.256;2023-12-20T12:15:48;5.37;;;2.00;;
20324;SDS011;10320;49.482;11.256;2023-12-20T12:18:15;3.60;;;1.73;;
20324;SDS011;10320;49.482;11.256;2023-12-20T12:20:41;5.00;;;1.93;;
20324;SDS011;10320;49.482;11.256;2023-12-20T12:23:08;4.57;;;1.60;;
20324;SDS011;10320;49.482;11.256;2023-12-20T12:25:37;3.23;;;1.70;;
20324;SDS011;10320;49.482;11.256;2023-12-20T12:28:03;3.27;;;1.80;;
20324;SDS011;10320;49.482;11.256;2023-12-20T12:30:29;4.30;;;1.83;;
20324;SDS011;10320;49.482;11.256;2023-12-20T12:32:55;4.20;;;1.87;;
20324;SDS011;10320;49.482;11.256;2023-12-20T12:35:22;5.63;;;1.90;;
20324;SDS011;10320;49.482;11.256;2023-12-20T12:37:48;5.13;;;1.87;;
20324;SDS011;10320;49.482;11.256;2023-12-20T12:40:15;2.23;;;1.80;;
20324;SDS011;10320;49.482;11.256;2023-12-20T12:42:42;3.63;;;2.00;;
20324;SDS011;10320;49.482;11.256;2023-12-20T12:45:09;6.13;;;2.83;;
20324;SDS011;10320;49.482;11.256;2023-12-20T12:47:36;4.50;;;2.10;;
20324;SDS011;10320;49.482;11.256;2023-12-20T12:50:02;3.07;;;2.17;;
20324;SDS011;10320;49.482;11.256;2023-12-20T12:52:28;7.73;;;2.07;;
20324;SDS011;10320;49.482;11.256;2023-12-20T12:54:54;3.07;;;1.93;;
20324;SDS011;10320;49.482;11.256;2023-12-20T12:57:20;2.87;;;2.00;;
20324;SDS011;10320;49.482;11.256;2023-12-20T12:59:46;4.50;;;2.17;;
20324;SDS011;10320;49.482;11.256;2023-12-20T13:02:12;3.40;;;1.90;;
20324;SDS011;10320;49.482;11.256;2023-12-20T13:04:39;4.33;;;1.90;;
20324;SDS011;10320;49.482;11.256;2023-12-20T13:07:06;3.47;;;1.70;;
20324;SDS011;10320;49.482;11.256;2023-12-20T13:09:32;6.60;;;2.30;;
20324;SDS011;10320;49.482;11.256;2023-12-20T13:11:58;3.93;;;1.83;;
20324;SDS011;10320;49.482;11.256;2023-12-20T13:14:24;13.87;;;2.93;;
20324;SDS011;10320;49.482;11.256;2023-12-20T13:16:51;3.47;;;1.80;;
20324;SDS011;10320;49.482;11.256;2023-12-20T13:19:17;3.97;;;2.10;;
20324;SDS011;10320;49.482;11.256;2023-12-20T13:21:43;8.77;;;2.73;;
20324;SDS011;10320;49.482;11.256;2023-12-20T13:24:09;7.83;;;2.77;;
20324;SDS011;10320;49.482;11.256;2023-12-20T13:26:35;3.13;;;1.90;;
20324;SDS011;10320;49.482;11.256;2023-12-20T13:29:01;2.60;;;1.53;;
20324;SDS011;10320;49.482;11.256;2023-12-20T13:31:27;4.47;;;1.80;;
20324;SDS011;10320;49.482;11.256;2023-12-20T13:33:53;3.63;;;1.77;;
20324;SDS011;10320;49.482;11.256;2023-12-20T13:36:19;8.57;;;2.87;;
20324;SDS011;10320;49.482;11.256;2023-12-20T13:38:45;3.03;;;1.43;;
20324;SDS011;10320;49.482;11.256;2023-12-20T13:41:11;2.60;;;1.60;;
20324;SDS011;10320;49.482;11.256;2023-12-20T13:43:37;4.90;;;2.07;;
20324;SDS011;10320;49.482;11.256;2023-12-20T13:46:06;5.77;;;1.73;;
20324;SDS011;10320;49.482;11.256;2023-12-20T13:48:32;4.10;;;1.73;;
20324;SDS011;10320;49.482;11.256;2023-12-20T13:50:58;2.50;;;1.50;;
20324;SDS011;10320;49.482;11.256;2023-12-20T13:53:25;1.73;;;1.63;;
20324;SDS011;10320;49.482;11.256;2023-12-20T13:55:51;2.90;;;1.77;;
20324;SDS011;10320;49.482;11.256;2023-12-20T13:58:17;2.80;;;1.60;;
20324;SDS011;10320;49.482;11.256;2023-12-20T14:00:43;5.33;;;1.90;;
20324;SDS011;10320;49.482;11.256;2023-12-20T14:03:09;3.60;;;1.60;;
20324;SDS011;10320;49.482;11.256;2023-12-20T14:05:35;3.43;;;1.63;;
20324;SDS011;10320;49.482;11.256;2023-12-20T14:08:01;2.20;;;1.37;;
20324;SDS011;10320;49.482;11.256;2023-12-20T14:10:27;3.27;;;1.50;;
20324;SDS011;10320;49.482;11.256;2023-12-20T14:12:53;2.93;;;1.47;;
20324;SDS011;10320;49.482;11.256;2023-12-20T14:15:20;6.60;;;1.90;;
20324;SDS011;10320;49.482;11.256;2023-12-20T14:17:46;4.57;;;1.80;;
20324;SDS011;10320;49.482;11.256;2023-12-20T14:20:12;2.10;;;1.40;;
20324;SDS011;10320;49.482;11.256;2023-12-20T14:22:38;2.50;;;1.60;;
20324;SDS011;10320;49.482;11.256;2023-12-20T14:25:08;3.27;;;1.83;;
20324;SDS011;10320;49.482;11.256;2023-12-20T14:27:36;2.57;;;1.87;;
20324;SDS011;10320;49.482;11.256;2023-12-20T14:30:02;2.93;;;1.80;;
20324;SDS011;10320;49.482;11.256;2023-12-20T14:32:28;4.20;;;1.80;;
20324;SDS011;10320;49.482;11.256;2023-12-20T14:34:54;3.67;;;1.70;;